Portada
METAR-TAF:

METAR-TAF

Aeroports :

Llemotges, França

latitud: 45-52N, longitud: 001-11E, altitud: 396 m

Observació

L'informe es va fer fa 12 minuts, a les 15:00 UTC
Vent 4 kt amb direcció variable
Temperatura 24°C
Humitat 25%
Pressió 1023 hPa
Visibilitat 10 km o més
sense núvols per sota de 1500 mi sense presència de cumulonimbus.

METAR: LFBL 191500Z AUTO VRB04KT CAVOK 24/03 Q1023 NOSIG

Hora: 17:12 (15:12 UTC)

Pronòstic

L'informe es va fer fa 4 hores i 12 minuts, a les 11:00 UTC
Pronòstic vàlid del 19 a les 12 UTC al 20 a les 12 UTC
Vent 10 kt del Est
Visibilitat 10 km o més
sense núvols per sota de 1500 mi sense presència de cumulonimbus.
Evolucionant progressivament
l' 19 a les 20 UTC al 19 a les 22 UTC
Vent 3 kt amb direcció variable
Evolucionant progressivament
l' 20 a les 09 UTC al 20 a les 11 UTC
Vent 5 kt del Nord-Est

TAF: LFBL 191100Z 1912/2012 09010KT CAVOK BECMG 1920/1922 VRB03KT BECMG 2009/2011 05005KT

Observacions i pronòstics meteorològics de més de 4000 aeroports (METAR i TAF).

Les estacions disponibles són els punts grocs i vermells al mapa.

Posi el ratolí al punt desitjat per veure el nom de l'estació.

Feu clic per veure les observacions i els pronòstics meteorològics.

Per canviar el mapa: feu clic els botons verds amb una creu de color negre per apropar; al botó verd amb un guió per allunyar la imatge; o en les fletxes verdes per a mapes adjacents.


METAR-TAF: